Time;durP1;ratioP1;P1;durP2;ratioP2;P2;SDS_P1;SDS_P2;PMS_P1;PMS_P2;Temp;Humidity;BMP_temperature;BMP_pressure;BME280_temperature;BME280_humidity;BME280_pressure;Samples;Min_cycle;Max_cycle;Signal;HPM_P1;HPM_P2
2023/07/06 00:00:36;;;;;;;1999.90;999.90;;;14.80;99.90;;;;;;5013463;28;20894;-68
2023/07/06 00:03:03;;;;;;;1999.90;999.90;;;14.70;99.90;;;;;;5013142;28;20409;-69
2023/07/06 00:05:29;;;;;;;1999.90;999.90;;;14.70;99.90;;;;;;5013305;28;20202;-68
2023/07/06 00:07:56;;;;;;;1999.90;999.90;;;14.70;99.90;;;;;;5013418;28;20421;-68
2023/07/06 00:10:25;;;;;;;1999.90;999.90;;;14.70;99.90;;;;;;5013343;28;20801;-67
2023/07/06 00:12:50;;;;;;;1999.90;999.90;;;14.60;99.90;;;;;;5012859;28;20960;-69
2023/07/06 00:15:16;;;;;;;1999.90;999.90;;;14.60;99.90;;;;;;5013141;28;20420;-68
2023/07/06 00:17:41;;;;;;;1999.90;999.90;;;14.50;99.90;;;;;;5013093;28;20203;-68
2023/07/06 00:20:10;;;;;;;1999.90;999.90;;;14.40;99.90;;;;;;5013325;28;20165;-68
2023/07/06 00:22:36;;;;;;;1999.90;999.90;;;14.40;99.90;;;;;;5012815;28;20163;-68
2023/07/06 00:25:02;;;;;;;1999.90;999.90;;;14.30;99.90;;;;;;5011098;28;20438;-68
2023/07/06 00:27:28;;;;;;;1999.90;999.90;;;14.30;99.90;;;;;;5013041;28;20408;-67
2023/07/06 00:30:15;;;;;;;1999.90;999.90;;;14.30;99.90;;;;;;5012940;28;20424;-67
2023/07/06 00:32:41;;;;;;;1999.90;999.90;;;14.30;99.90;;;;;;5012677;28;20923;-68
2023/07/06 00:35:10;;;;;;;1999.90;999.90;;;14.30;99.90;;;;;;5012804;28;20811;-68
2023/07/06 00:37:38;;;;;;;1999.90;999.90;;;14.30;99.90;;;;;;5012711;28;20463;-69
2023/07/06 00:40:08;;;;;;;1999.90;999.90;;;14.30;99.90;;;;;;5012752;28;20407;-68
2023/07/06 00:42:34;;;;;;;1999.90;999.90;;;14.20;99.90;;;;;;5012986;28;20418;-68
2023/07/06 00:45:01;;;;;;;1999.90;999.90;;;14.20;99.90;;;;;;5012568;28;20432;-68
2023/07/06 00:47:48;;;;;;;1999.90;999.90;;;14.10;99.90;;;;;;5012789;28;20421;-68
2023/07/06 00:50:17;;;;;;;1999.90;999.90;;;14.20;99.90;;;;;;5012667;28;20858;-69
2023/07/06 00:52:48;;;;;;;1999.90;999.90;;;14.20;99.90;;;;;;5012234;28;20407;-68
2023/07/06 00:55:16;;;;;;;1999.90;999.90;;;14.20;99.90;;;;;;5012450;28;20467;-69
2023/07/06 00:57:44;;;;;;;1999.90;999.90;;;14.20;99.90;;;;;;5012449;28;20491;-68
2023/07/06 01:00:13;;;;;;;1999.90;999.90;;;14.10;99.90;;;;;;5012525;28;20842;-68
2023/07/06 01:02:40;;;;;;;1999.90;999.90;;;14.20;99.90;;;;;;5012224;28;20413;-68
2023/07/06 01:05:10;;;;;;;1999.90;999.90;;;14.20;99.90;;;;;;5012334;28;20422;-68
2023/07/06 01:07:39;;;;;;;1999.90;999.90;;;14.20;99.90;;;;;;5012547;28;20918;-67
2023/07/06 01:10:08;;;;;;;1999.90;999.90;;;14.20;99.90;;;;;;5012346;28;20415;-67
2023/07/06 01:12:34;;;;;;;1999.90;999.90;;;14.20;99.90;;;;;;5011944;28;20434;-68
2023/07/06 01:15:00;;;;;;;1999.90;999.90;;;14.10;99.90;;;;;;5012320;28;20496;-68
2023/07/06 01:17:38;;;;;;;1999.90;999.90;;;14.10;99.90;;;;;;5012355;28;20207;-67
2023/07/06 01:20:31;;;;;;;1999.90;999.90;;;14.10;99.90;;;;;;5012299;28;20165;-67
2023/07/06 01:23:23;;;;;;;1999.90;999.90;;;14.10;99.90;;;;;;5011979;28;20438;-68
2023/07/06 01:26:15;;;;;;;1999.90;999.90;;;14.10;99.90;;;;;;4993019;28;20444;-67
2023/07/06 01:28:57;;;;;;;1999.90;999.90;;;14.00;99.90;;;;;;5012262;28;20461;-68
2023/07/06 01:31:22;;;;;;;1999.90;999.90;;;14.00;99.90;;;;;;5012011;28;20410;-69
2023/07/06 01:33:56;;;;;;;1999.90;999.90;;;14.00;99.90;;;;;;5012129;28;20427;-68
2023/07/06 01:36:34;;;;;;;1999.90;999.90;;;14.00;99.90;;;;;;5013431;28;20606;-68
2023/07/06 01:39:15;;;;;;;1999.90;999.90;;;14.00;99.90;;;;;;5016203;28;20486;-67
2023/07/06 01:41:41;;;;;;;1999.90;999.90;;;13.90;99.90;;;;;;5015992;28;20479;-69
2023/07/06 01:44:11;;;;;;;1999.90;999.90;;;13.90;99.90;;;;;;5016039;28;20415;-68
2023/07/06 01:46:37;;;;;;;1999.90;999.90;;;13.90;99.90;;;;;;5016047;28;20907;-67
2023/07/06 01:49:05;;;;;;;1999.90;999.90;;;13.90;99.90;;;;;;5015889;28;20759;-67
2023/07/06 01:51:59;;;;;;;1999.90;999.90;;;13.90;99.90;;;;;;5015768;28;20406;-67
2023/07/06 01:54:31;;;;;;;1999.90;999.90;;;13.90;99.90;;;;;;5000798;28;21117;-67
2023/07/06 01:57:05;;;;;;;1999.90;999.90;;;13.90;99.90;;;;;;5015819;28;20443;-69
2023/07/06 01:59:33;;;;;;;1999.90;999.90;;;13.80;99.90;;;;;;5016052;28;20777;-68
2023/07/06 02:02:03;;;;;;;1999.90;999.90;;;13.80;99.90;;;;;;5015430;28;20813;-67
2023/07/06 02:04:30;;;;;;;1999.90;999.90;;;13.80;99.90;;;;;;5015608;28;20423;-68
2023/07/06 02:07:03;;;;;;;1999.90;999.90;;;13.80;99.90;;;;;;5015578;28;20416;-68
2023/07/06 02:09:29;;;;;;;1999.90;999.90;;;13.80;99.90;;;;;;5015563;28;20447;-68
2023/07/06 02:11:55;;;;;;;1999.90;999.90;;;13.70;99.90;;;;;;5015181;28;20460;-68
2023/07/06 02:14:21;;;;;;;1999.90;999.90;;;13.70;99.90;;;;;;5015567;28;20478;-68
2023/07/06 02:16:50;;;;;;;1999.90;999.90;;;13.70;99.90;;;;;;5015495;28;20204;-68
2023/07/06 02:19:18;;;;;;;1999.90;999.90;;;13.70;99.90;;;;;;5015417;28;20489;-68
2023/07/06 02:21:43;;;;;;;1999.90;999.90;;;13.60;99.90;;;;;;5015113;28;20432;-68
2023/07/06 02:24:12;;;;;;;1999.90;999.90;;;13.60;99.90;;;;;;5015222;28;20432;-68
2023/07/06 02:26:37;;;;;;;1999.90;999.90;;;13.60;99.90;;;;;;5015392;28;20695;-67
2023/07/06 02:29:03;;;;;;;1999.90;999.90;;;13.60;99.90;;;;;;5015255;28;20403;-67
2023/07/06 02:31:28;;;;;;;1999.90;999.90;;;13.50;99.90;;;;;;5015047;28;20203;-68
2023/07/06 02:33:54;;;;;;;1999.90;999.90;;;13.40;99.90;;;;;;5015131;28;20189;-69
2023/07/06 02:36:19;;;;;;;1999.90;999.90;;;13.50;99.90;;;;;;5015238;28;20251;-68
2023/07/06 02:38:46;;;;;;;1999.90;999.90;;;13.40;99.90;;;;;;5014928;28;20254;-67
2023/07/06 02:41:12;;;;;;;1999.90;999.90;;;13.50;99.90;;;;;;5014942;28;20237;-67
2023/07/06 02:43:37;;;;;;;1999.90;999.90;;;13.50;99.90;;;;;;5015061;28;20825;-67
2023/07/06 02:46:04;;;;;;;1999.90;999.90;;;13.50;99.90;;;;;;5014877;28;20402;-66
2023/07/06 02:48:29;;;;;;;1999.90;999.90;;;13.60;99.90;;;;;;5014191;28;20196;-67
2023/07/06 02:50:55;;;;;;;1999.90;999.90;;;13.50;99.90;;;;;;5014547;28;20450;-68
2023/07/06 02:53:20;;;;;;;1999.90;999.90;;;13.70;99.90;;;;;;5014652;28;20198;-67
2023/07/06 02:55:47;;;;;;;1999.90;999.90;;;13.50;99.90;;;;;;5014786;28;20181;-66
2023/07/06 02:58:14;;;;;;;1999.90;999.90;;;13.50;99.90;;;;;;5014741;28;20276;-67
2023/07/06 03:00:39;;;;;;;1999.90;999.90;;;13.50;99.90;;;;;;5014662;28;20407;-66
2023/07/06 03:03:08;;;;;;;1999.90;999.90;;;13.40;99.90;;;;;;5014394;28;20400;-67
2023/07/06 03:05:35;;;;;;;1999.90;999.90;;;13.40;99.90;;;;;;5014575;28;20565;-67
2023/07/06 03:08:01;;;;;;;1999.90;999.90;;;13.40;99.90;;;;;;5014505;28;20964;-68
2023/07/06 03:10:27;;;;;;;1999.90;999.90;;;13.40;99.90;;;;;;5014356;28;20506;-67
2023/07/06 03:12:54;;;;;;;1999.90;999.90;;;13.30;99.90;;;;;;5014152;28;20573;-66
2023/07/06 03:15:19;;;;;;;1999.90;999.90;;;13.30;99.90;;;;;;5014426;28;20197;-67
2023/07/06 03:17:48;;;;;;;1999.90;999.90;;;13.20;99.90;;;;;;5014327;28;20467;-66
2023/07/06 03:20:15;;;;;;;1999.90;999.90;;;13.20;99.90;;;;;;5014326;28;20186;-66
2023/07/06 03:22:48;;;;;;;1999.90;999.90;;;13.20;99.90;;;;;;5014029;28;20852;-68
2023/07/06 03:25:15;;;;;;;1999.90;999.90;;;13.20;99.90;;;;;;5014133;28;20938;-67
2023/07/06 03:27:41;;;;;;;1999.90;999.90;;;13.20;99.90;;;;;;5014222;28;20832;-67
2023/07/06 03:30:10;;;;;;;1999.90;999.90;;;13.20;99.90;;;;;;5014104;28;20405;-66
2023/07/06 03:32:37;;;;;;;1999.90;999.90;;;13.20;99.90;;;;;;5013720;28;20415;-67
2023/07/06 03:35:03;;;;;;;1999.90;999.90;;;13.20;99.90;;;;;;5013865;28;20516;-67
2023/07/06 03:37:29;;;;;;;1999.90;999.90;;;13.20;99.90;;;;;;5014160;28;20461;-66
2023/07/06 03:39:55;;;;;;;1999.90;999.90;;;13.20;99.90;;;;;;5013964;28;20414;-66
2023/07/06 03:42:21;;;;;;;1999.90;999.90;;;13.20;99.90;;;;;;5013608;28;20165;-66
2023/07/06 03:44:46;;;;;;;1999.90;999.90;;;13.20;99.90;;;;;;5013990;28;20582;-67
2023/07/06 03:47:13;;;;;;;1999.90;999.90;;;13.20;99.90;;;;;;5013801;28;20167;-67
2023/07/06 03:49:39;;;;;;;1999.90;999.90;;;13.20;99.90;;;;;;5013765;28;20254;-66
2023/07/06 03:52:06;;;;;;;1999.90;999.90;;;13.20;99.90;;;;;;5013438;28;20498;-66
2023/07/06 03:54:31;;;;;;;1999.90;999.90;;;13.20;99.90;;;;;;5013772;28;20211;-67
2023/07/06 03:56:57;;;;;;;1999.90;999.90;;;13.20;99.90;;;;;;5013567;28;20942;-66
2023/07/06 03:59:23;;;;;;;1999.90;999.90;;;13.20;99.90;;;;;;5012943;28;20181;-67
2023/07/06 04:01:49;;;;;;;1999.90;999.90;;;13.20;99.90;;;;;;5013032;28;20206;-67
2023/07/06 04:04:16;;;;;;;1999.90;999.90;;;13.20;99.90;;;;;;5013397;28;20781;-67
2023/07/06 04:06:42;;;;;;;1999.90;999.90;;;13.20;99.90;;;;;;5013734;28;20668;-67
2023/07/06 04:09:11;;;;;;;1999.90;999.90;;;13.30;99.90;;;;;;5013371;28;20444;-67
2023/07/06 04:11:37;;;;;;;1999.90;999.90;;;13.30;99.90;;;;;;5013071;28;20179;-67
2023/07/06 04:14:03;;;;;;;1999.90;999.90;;;13.40;99.90;;;;;;5013113;28;20538;-66
2023/07/06 04:16:29;;;;;;;1999.90;999.90;;;13.40;99.90;;;;;;5013204;28;20419;-66
2023/07/06 04:18:55;;;;;;;1999.90;999.90;;;13.50;99.90;;;;;;5013105;28;20821;-67
2023/07/06 04:21:22;;;;;;;1999.90;999.90;;;13.40;99.90;;;;;;5012819;28;20410;-68
2023/07/06 04:23:48;;;;;;;1999.90;999.90;;;13.40;99.90;;;;;;5013087;28;20211;-67
2023/07/06 04:26:16;;;;;;;1999.90;999.90;;;13.50;99.90;;;;;;5013042;28;20409;-66
2023/07/06 04:28:42;;;;;;;1999.90;999.90;;;13.50;99.90;;;;;;5013054;28;20411;-67
2023/07/06 04:31:10;;;;;;;1999.90;999.90;;;13.60;99.90;;;;;;5012734;28;20435;-68
2023/07/06 04:33:36;;;;;;;1999.90;999.90;;;13.70;99.90;;;;;;5012884;28;20464;-67
2023/07/06 04:36:02;;;;;;;1999.90;999.90;;;13.60;99.90;;;;;;5012947;28;20498;-67
2023/07/06 04:38:29;;;;;;;1999.90;999.90;;;13.60;99.90;;;;;;5012943;28;20547;-67
2023/07/06 04:40:56;;;;;;;1999.90;999.90;;;13.70;99.90;;;;;;5012569;28;20408;-66
2023/07/06 04:43:22;;;;;;;1999.90;999.90;;;13.70;99.90;;;;;;5012685;28;20786;-68
2023/07/06 04:45:48;;;;;;;1999.90;999.90;;;13.70;99.90;;;;;;5012725;28;20435;-68
2023/07/06 04:48:16;;;;;;;1999.90;999.90;;;13.80;99.90;;;;;;5012696;28;20404;-68
2023/07/06 04:50:43;;;;;;;1999.90;999.90;;;13.80;99.90;;;;;;5012630;28;20420;-67
2023/07/06 04:53:09;;;;;;;1999.90;999.90;;;13.80;99.90;;;;;;5012529;28;20403;-67
2023/07/06 04:55:35;;;;;;;1999.90;999.90;;;13.80;99.90;;;;;;5012615;28;20408;-67
2023/07/06 04:58:05;;;;;;;1999.90;999.90;;;13.90;99.90;;;;;;5012666;28;20999;-67
2023/07/06 05:00:33;;;;;;;1999.90;999.90;;;13.90;99.90;;;;;;5012614;28;20408;-66
2023/07/06 05:03:02;;;;;;;1999.90;999.90;;;13.90;99.90;;;;;;5012304;28;20440;-67
2023/07/06 05:05:38;;;;;;;1999.90;999.90;;;13.90;99.90;;;;;;5012428;28;20436;-67
2023/07/06 05:08:05;;;;;;;1999.90;999.90;;;13.90;99.90;;;;;;5012565;28;20404;-67
2023/07/06 05:10:31;;;;;;;1999.90;999.90;;;14.00;99.90;;;;;;5012358;28;20491;-67
2023/07/06 05:12:56;;;;;;;1999.90;999.90;;;14.00;99.90;;;;;;5011976;28;20437;-67
2023/07/06 05:15:23;;;;;;;1999.90;999.90;;;14.00;99.90;;;;;;5012165;28;20936;-68
2023/07/06 05:17:48;;;;;;;1999.90;999.90;;;14.00;99.90;;;;;;5012272;28;20200;-67
2023/07/06 05:20:14;;;;;;;1999.90;999.90;;;14.10;99.90;;;;;;5012494;28;20985;-67
2023/07/06 05:22:42;;;;;;;1999.90;999.90;;;14.20;99.90;;;;;;5012111;28;20167;-66
2023/07/06 05:25:10;;;;;;;1999.90;999.90;;;14.20;99.90;;;;;;5012218;28;20189;-67
2023/07/06 05:27:37;;;;;;;1999.90;999.90;;;14.20;99.90;;;;;;5012209;28;20405;-66
2023/07/06 05:30:03;;;;;;;1999.90;999.90;;;14.30;99.90;;;;;;5012247;28;20407;-68
2023/07/06 05:32:29;;;;;;;1999.90;999.90;;;14.30;99.90;;;;;;5011962;28;20405;-67
2023/07/06 05:34:55;;;;;;;1999.90;999.90;;;14.40;99.90;;;;;;5012048;28;20433;-67
2023/07/06 05:37:20;;;;;;;1999.90;999.90;;;14.50;99.90;;;;;;5012073;28;20481;-68
2023/07/06 05:39:46;;;;;;;1999.90;999.90;;;14.50;99.90;;;;;;5012135;28;20178;-68
2023/07/06 05:42:13;;;;;;;1999.90;999.90;;;14.60;99.90;;;;;;5011762;28;20267;-68
2023/07/06 05:44:39;;;;;;;1999.90;999.90;;;14.60;99.90;;;;;;5011936;28;20434;-68
2023/07/06 05:47:07;;;;;;;1999.90;999.90;;;14.70;99.90;;;;;;5012072;28;20407;-67
2023/07/06 05:49:33;;;;;;;1999.90;999.90;;;14.70;99.90;;;;;;5012116;28;20227;-68
2023/07/06 05:51:58;;;;;;;1999.90;999.90;;;14.80;99.90;;;;;;5011883;28;20450;-70
2023/07/06 05:54:24;;;;;;;1999.90;999.90;;;14.90;99.90;;;;;;5012226;28;20479;-70
2023/07/06 05:56:50;;;;;;;1999.90;999.90;;;15.00;99.90;;;;;;5012493;28;20291;-69
2023/07/06 05:59:16;;;;;;;1999.90;999.90;;;15.00;99.90;;;;;;5011969;28;20191;-70
2023/07/06 06:01:42;;;;;;;1999.90;999.90;;;15.10;99.90;;;;;;5011607;28;20666;-68
2023/07/06 06:04:07;;;;;;;1999.90;999.90;;;15.10;99.90;;;;;;5011898;28;20425;-68
2023/07/06 06:06:47;;;;;;;1999.90;999.90;;;15.10;99.90;;;;;;5012039;28;20173;-69
2023/07/06 06:09:13;;;;;;;1999.90;999.90;;;15.20;99.90;;;;;;5012941;28;20265;-70
2023/07/06 06:11:39;;;;;;;1999.90;999.90;;;15.20;99.90;;;;;;5013175;28;20412;-69
2023/07/06 06:14:05;;;;;;;1999.90;999.90;;;15.20;99.90;;;;;;5012973;28;21044;-69
2023/07/06 06:16:32;;;;;;;1999.90;999.90;;;15.20;99.90;;;;;;5012647;28;20436;-69
2023/07/06 06:19:01;;;;;;;1999.90;999.90;;;15.30;99.90;;;;;;5011774;28;20457;-68
2023/07/06 06:21:31;;;;;;;1999.90;999.90;;;15.40;99.90;;;;;;5011490;28;20487;-70
2023/07/06 06:23:57;;;;;;;1999.90;999.90;;;15.40;99.90;;;;;;5013586;28;20852;-68
2023/07/06 06:26:24;;;;;;;1999.90;999.90;;;15.50;99.90;;;;;;5015497;28;20413;-68
2023/07/06 06:28:49;;;;;;;1999.90;999.90;;;15.50;99.90;;;;;;5015242;28;20415;-68
2023/07/06 06:31:15;;;;;;;1999.90;999.90;;;15.50;99.90;;;;;;5014884;28;20410;-69
2023/07/06 06:33:41;;;;;;;1999.90;999.90;;;15.50;99.90;;;;;;5015050;28;20189;-69
2023/07/06 06:36:08;;;;;;;1999.90;999.90;;;15.60;99.90;;;;;;5015151;28;20482;-69
2023/07/06 06:38:34;;;;;;;1999.90;999.90;;;15.60;99.90;;;;;;5014886;28;20494;-69
2023/07/06 06:41:05;;;;;;;1999.90;999.90;;;15.50;99.90;;;;;;5014932;28;20432;-70
2023/07/06 06:43:31;;;;;;;1999.90;999.90;;;15.60;99.90;;;;;;5014786;28;20432;-69
2023/07/06 06:45:57;;;;;;;1999.90;999.90;;;15.70;99.90;;;;;;5014911;28;20407;-68
2023/07/06 06:48:22;;;;;;;1999.90;999.90;;;15.70;99.90;;;;;;5014916;28;20173;-69
2023/07/06 06:50:48;;;;;;;1999.90;999.90;;;15.90;99.90;;;;;;5014407;28;20176;-68
2023/07/06 06:53:13;;;;;;;1999.90;999.90;;;15.90;99.90;;;;;;5014197;28;20181;-69
2023/07/06 06:55:39;;;;;;;1999.90;999.90;;;16.00;99.90;;;;;;5014801;28;20278;-68
2023/07/06 06:58:05;;;;;;;1999.90;999.90;;;16.10;99.90;;;;;;5014615;28;20341;-68
2023/07/06 07:00:30;;;;;;;1999.90;999.90;;;16.10;99.90;;;;;;5014689;28;20169;-69
2023/07/06 07:02:57;;;;;;;1999.90;999.90;;;16.10;99.90;;;;;;5014394;28;20599;-69
2023/07/06 07:05:23;;;;;;;1999.90;999.90;;;16.20;99.90;;;;;;5014393;28;20280;-70
2023/07/06 07:07:49;;;;;;;1999.90;999.90;;;16.30;99.90;;;;;;5014577;28;20507;-69
2023/07/06 07:10:15;;;;;;;1999.90;999.90;;;16.30;99.90;;;;;;5014493;28;20277;-69
2023/07/06 07:12:42;;;;;;;1999.90;999.90;;;16.30;99.90;;;;;;5014111;28;20533;-69
2023/07/06 07:15:10;;;;;;;1999.90;999.90;;;16.40;99.90;;;;;;5014363;28;20276;-69
2023/07/06 07:17:37;;;;;;;1999.90;999.90;;;16.40;99.90;;;;;;5014272;28;20455;-68
2023/07/06 07:20:02;;;;;;;1999.90;999.90;;;16.50;99.90;;;;;;5014164;28;20410;-70
2023/07/06 07:22:28;;;;;;;1999.90;999.90;;;16.50;99.90;;;;;;5013920;28;20421;-69
2023/07/06 07:24:54;;;;;;;1999.90;999.90;;;16.50;99.90;;;;;;5014115;28;20196;-68
2023/07/06 07:27:20;;;;;;;1999.90;999.90;;;16.60;99.90;;;;;;5014124;28;20180;-69
2023/07/06 07:29:47;;;;;;;1999.90;999.90;;;16.60;99.90;;;;;;5014151;28;20174;-69
2023/07/06 07:32:13;;;;;;;1999.90;999.90;;;16.70;99.90;;;;;;5013703;28;20408;-68
2023/07/06 07:34:39;;;;;;;1999.90;999.90;;;16.70;99.90;;;;;;5013720;28;20439;-69
2023/07/06 07:37:07;;;;;;;1999.90;999.90;;;16.80;99.90;;;;;;5013819;28;20450;-69
2023/07/06 07:39:33;;;;;;;1999.90;999.90;;;16.90;99.90;;;;;;5013856;28;20161;-69
2023/07/06 07:41:58;;;;;;;1999.90;999.90;;;16.90;99.90;;;;;;5013656;28;20407;-69
2023/07/06 07:44:28;;;;;;;1999.90;999.90;;;16.90;99.90;;;;;;5013855;28;20430;-69
2023/07/06 07:46:53;;;;;;;1999.90;999.90;;;17.00;99.90;;;;;;5013779;28;20544;-69
2023/07/06 07:49:19;;;;;;;1999.90;999.90;;;17.00;99.90;;;;;;5013730;28;20423;-69
2023/07/06 07:51:46;;;;;;;1999.90;999.90;;;17.00;99.90;;;;;;5013611;28;20186;-68
2023/07/06 07:54:11;;;;;;;1999.90;999.90;;;17.10;99.90;;;;;;5013707;28;20589;-69
2023/07/06 07:56:37;;;;;;;1999.90;999.90;;;17.20;99.90;;;;;;5013543;28;20393;-69
2023/07/06 07:59:03;;;;;;;1999.90;999.90;;;17.30;99.90;;;;;;5013580;28;20695;-69
2023/07/06 08:01:28;;;;;;;1999.90;999.90;;;17.50;99.90;;;;;;5013274;28;20192;-69
2023/07/06 08:03:54;;;;;;;1999.90;999.90;;;17.60;99.90;;;;;;5013367;28;20433;-69
2023/07/06 08:06:21;;;;;;;1999.90;999.90;;;17.60;99.90;;;;;;5013493;28;20411;-69
2023/07/06 08:08:47;;;;;;;1999.90;999.90;;;17.70;99.90;;;;;;5013500;28;20180;-69
2023/07/06 08:11:16;;;;;;;1999.90;999.90;;;17.70;99.90;;;;;;5012973;28;20416;-69
2023/07/06 08:13:45;;;;;;;1999.90;999.90;;;17.70;99.90;;;;;;5013160;28;20602;-69
2023/07/06 08:16:12;;;;;;;1999.90;999.90;;;17.80;99.90;;;;;;5007830;28;20975;-69
2023/07/06 08:18:40;;;;;;;1999.90;999.90;;;17.80;99.90;;;;;;5008572;28;20874;-69
2023/07/06 08:21:06;;;;;;;1999.90;999.90;;;17.90;99.90;;;;;;5007908;28;20476;-66
2023/07/06 08:23:32;;;;;;;1999.90;999.90;;;17.90;99.90;;;;;;5007744;28;20837;-66
2023/07/06 08:25:58;;;;;;;1999.90;999.90;;;18.10;99.90;;;;;;5009421;28;20182;-66
2023/07/06 08:28:31;;;;;;;1999.90;999.90;;;18.20;99.90;;;;;;5008317;28;20422;-67
2023/07/06 08:31:03;;;;;;;1999.90;999.90;;;18.30;99.90;;;;;;5006533;28;20529;-68
2023/07/06 08:33:35;;;;;;;1999.90;999.90;;;18.40;99.90;;;;;;5008591;28;20478;-66
2023/07/06 08:36:03;;;;;;;1999.90;999.90;;;18.40;99.90;;;;;;4976551;28;20437;-68
2023/07/06 08:38:31;;;;;;;1999.90;999.90;;;18.50;99.90;;;;;;5008465;28;21162;-67
2023/07/06 08:40:59;;;;;;;1999.90;999.90;;;18.50;99.90;;;;;;5007957;28;20854;-66
2023/07/06 08:43:26;;;;;;;1999.90;999.90;;;18.60;99.90;;;;;;5008648;28;20450;-67
2023/07/06 08:46:00;;;;;;;1999.90;999.90;;;18.60;99.90;;;;;;5008263;28;20923;-67
2023/07/06 08:48:30;;;;;;;1999.90;999.90;;;18.60;99.90;;;;;;5008372;28;21019;-67
2023/07/06 08:51:03;;;;;;;1999.90;999.90;;;18.70;99.90;;;;;;5002752;28;20441;-66
2023/07/06 08:53:33;;;;;;;1999.90;999.90;;;18.80;99.90;;;;;;4987694;28;20998;-67
2023/07/06 08:56:01;;;;;;;1999.90;999.90;;;18.70;99.90;;;;;;4988979;28;20420;-69
2023/07/06 08:58:32;;;;;;;1999.90;999.90;;;18.90;99.90;;;;;;4988740;28;20452;-67
2023/07/06 09:01:06;;;;;;;1999.90;999.90;;;19.00;99.90;;;;;;4987521;28;20417;-66
2023/07/06 09:03:40;;;;;;;1999.90;999.90;;;19.20;99.90;;;;;;4988223;28;20948;-66
2023/07/06 09:06:11;;;;;;;1999.90;999.90;;;19.30;99.90;;;;;;4988200;28;20482;-66
2023/07/06 09:08:37;;;;;;;1999.90;999.90;;;19.30;99.90;;;;;;4987639;28;20423;-69
2023/07/06 09:11:05;;;;;;;1999.90;999.90;;;19.40;99.90;;;;;;4988488;28;20467;-68
2023/07/06 09:13:42;;;;;;;1999.90;999.90;;;19.50;99.90;;;;;;4987936;28;20463;-66
2023/07/06 09:16:10;;;;;;;1999.90;999.90;;;19.60;99.90;;;;;;4987563;28;20472;-66
2023/07/06 09:18:36;;;;;;;1999.90;999.90;;;19.70;99.90;;;;;;4988043;28;20495;-68
2023/07/06 09:21:03;;;;;;;1999.90;999.90;;;19.80;99.90;;;;;;4988507;28;20796;-67
2023/07/06 09:23:30;;;;;;;1999.90;999.90;;;20.10;99.90;;;;;;4987539;28;21001;-67
2023/07/06 09:25:56;;;;;;;1999.90;999.90;;;20.10;99.90;;;;;;4987968;28;20492;-67
2023/07/06 09:28:28;;;;;;;1999.90;999.90;;;20.10;99.90;;;;;;4988594;28;20421;-67
2023/07/06 09:31:07;;;;;;;1999.90;999.90;;;20.20;99.90;;;;;;4987505;28;20203;-66
2023/07/06 09:33:33;;;;;;;1999.90;999.90;;;20.20;99.90;;;;;;4988061;28;20433;-66
2023/07/06 09:35:58;;;;;;;1999.90;999.90;;;20.20;99.90;;;;;;4987874;28;20447;-67
2023/07/06 09:38:30;;;;;;;1999.90;999.90;;;20.20;99.90;;;;;;4988184;28;20200;-67
2023/07/06 09:40:56;;;;;;;1999.90;999.90;;;20.40;99.90;;;;;;4988289;28;20259;-67
2023/07/06 09:43:24;;;;;;;1999.90;999.90;;;20.40;99.90;;;;;;4987732;28;20409;-66
2023/07/06 09:45:52;;;;;;;1999.90;999.90;;;20.60;99.90;;;;;;4987356;28;20181;-68
2023/07/06 09:48:37;;;;;;;1999.90;999.90;;;20.70;99.90;;;;;;4988295;28;21178;-66
2023/07/06 09:51:13;;;;;;;1999.90;999.90;;;20.90;99.90;;;;;;4987543;28;20508;-68
2023/07/06 09:53:48;;;;;;;1999.90;999.90;;;21.00;98.40;;;;;;4988137;28;20432;-69
2023/07/06 09:56:15;;;;;;;1999.90;999.90;;;21.00;99.90;;;;;;4988466;28;20416;-67
2023/07/06 09:58:41;;;;;;;1999.90;999.90;;;21.20;99.90;;;;;;4989090;28;20448;-67
2023/07/06 10:01:43;;;;;;;1999.90;999.90;;;21.20;96.30;;;;;;4991107;28;20436;-67
2023/07/06 10:04:44;;;;;;;1999.90;999.90;;;21.30;91.70;;;;;;4991589;28;20452;-69
2023/07/06 10:07:23;;;;;;;1999.90;999.90;;;21.50;91.60;;;;;;4991762;28;20432;-67
2023/07/06 10:10:32;;;;;;;1999.90;999.90;;;21.50;95.30;;;;;;4991948;28;20521;-68
2023/07/06 10:13:05;;;;;;;1999.90;999.90;;;21.30;91.00;;;;;;4930946;29;20480;-68
2023/07/06 10:15:42;;;;;;;1999.90;999.90;;;21.30;95.10;;;;;;4982091;28;20461;-65
2023/07/06 10:18:25;;;;;;;1999.90;999.90;;;21.30;96.20;;;;;;4991779;28;20489;-67
2023/07/06 10:21:25;;;;;;;1999.90;999.90;;;21.10;92.30;;;;;;4991466;28;20417;-67
2023/07/06 10:23:59;;;;;;;1999.90;999.90;;;21.50;89.60;;;;;;4991369;28;20467;-68
2023/07/06 10:26:33;;;;;;;1999.90;999.90;;;21.80;87.00;;;;;;4991260;28;20426;-66
2023/07/06 10:29:22;;;;;;;1999.90;999.90;;;22.00;77.20;;;;;;4990405;28;20431;-67
2023/07/06 10:31:58;;;;;;;1999.90;999.90;;;21.90;80.80;;;;;;4991533;28;20419;-67
2023/07/06 10:34:49;;;;;;;1999.90;999.90;;;21.70;86.20;;;;;;4991669;28;20513;-66
2023/07/06 10:37:17;;;;;;;1999.90;999.90;;;22.10;80.10;;;;;;4990306;28;20469;-67
2023/07/06 10:39:42;;;;;;;1999.90;999.90;;;22.30;73.00;;;;;;4991527;28;20421;-68
2023/07/06 10:42:25;;;;;;;1999.90;999.90;;;22.50;69.10;;;;;;4990413;28;20411;-67
2023/07/06 10:44:55;;;;;;;1999.90;999.90;;;22.60;64.20;;;;;;4990906;28;20200;-66
2023/07/06 10:47:37;;;;;;;1999.90;999.90;;;22.90;59.40;;;;;;4990577;28;20417;-67
2023/07/06 10:50:08;;;;;;;1999.90;999.90;;;23.10;61.50;;;;;;4990793;28;20774;-67
2023/07/06 10:52:47;;;;;;;1999.90;999.90;;;23.40;58.80;;;;;;4989913;28;20421;-67
2023/07/06 10:55:24;;;;;;;1999.90;999.90;;;23.30;52.80;;;;;;4990606;28;20436;-67
2023/07/06 10:57:51;;;;;;;1999.90;999.90;;;23.30;56.90;;;;;;4990087;28;20471;-67
2023/07/06 11:00:19;;;;;;;1999.90;999.90;;;23.30;59.40;;;;;;4990295;28;20970;-68
2023/07/06 11:02:45;;;;;;;1999.90;999.90;;;23.30;54.80;;;;;;4990886;28;20913;-67
2023/07/06 11:05:25;;;;;;;1999.90;999.90;;;23.40;55.90;;;;;;4989891;28;20445;-67
2023/07/06 11:07:53;;;;;;;1999.90;999.90;;;23.10;47.60;;;;;;4990500;28;20413;-68
2023/07/06 11:10:28;;;;;;;1999.90;999.90;;;23.50;55.00;;;;;;4989667;28;20422;-67
2023/07/06 11:12:55;;;;;;;1999.90;999.90;;;24.00;48.40;;;;;;4989339;28;20455;-67
2023/07/06 11:15:29;;;;;;;1999.90;999.90;;;24.40;47.70;;;;;;4990717;28;20503;-68
2023/07/06 11:17:56;;;;;;;1999.90;999.90;;;24.70;46.70;;;;;;4990873;28;20829;-67
2023/07/06 11:20:28;;;;;;;1999.90;999.90;;;24.90;42.30;;;;;;4989668;28;20391;-67
2023/07/06 11:23:02;;;;;;;1999.90;999.90;;;25.00;31.90;;;;;;4989643;28;20512;-67
2023/07/06 11:25:29;;;;;;;1999.90;999.90;;;24.90;32.50;;;;;;4989854;28;20820;-67
2023/07/06 11:28:08;;;;;;;1999.90;999.90;;;24.90;30.00;;;;;;4990126;28;20416;-67
2023/07/06 11:30:40;;;;;;;1999.90;999.90;;;24.80;29.90;;;;;;4990394;28;20496;-68
2023/07/06 11:33:24;;;;;;;1999.90;999.90;;;24.50;31.70;;;;;;4990316;28;20416;-67
2023/07/06 11:36:26;;;;;;;1999.90;999.90;;;24.40;29.00;;;;;;4989915;28;20421;-68
2023/07/06 11:39:16;;;;;;;1999.90;999.90;;;24.20;31.60;;;;;;4990535;28;20521;-68
2023/07/06 11:41:49;;;;;;;1999.90;999.90;;;24.00;29.40;;;;;;4989425;28;20409;-67
2023/07/06 11:44:35;;;;;;;1999.90;999.90;;;24.00;32.50;;;;;;4989523;28;20432;-69
2023/07/06 11:47:38;;;;;;;1999.90;999.90;;;24.20;29.60;;;;;;4989528;28;20748;-67
2023/07/06 11:50:09;;;;;;;1999.90;999.90;;;24.50;32.70;;;;;;4988752;28;20413;-68
2023/07/06 11:52:57;;;;;;;1999.90;999.90;;;24.60;28.60;;;;;;4989866;28;20417;-69
2023/07/06 11:55:39;;;;;;;1999.90;999.90;;;24.60;26.10;;;;;;4989300;28;20439;-67
2023/07/06 11:58:28;;;;;;;1999.90;999.90;;;24.60;28.60;;;;;;4989437;28;20831;-69
2023/07/06 12:00:56;;;;;;;1999.90;999.90;;;24.90;26.80;;;;;;4989829;28;20922;-68
2023/07/06 12:03:26;;;;;;;1999.90;999.90;;;25.10;25.90;;;;;;4989042;28;20445;-68
2023/07/06 12:05:55;;;;;;;1999.90;999.90;;;25.00;26.40;;;;;;4988625;28;20406;-68
2023/07/06 12:08:29;;;;;;;1999.90;999.90;;;25.10;26.40;;;;;;4989511;28;20448;-67
2023/07/06 12:11:28;;;;;;;1999.90;999.90;;;25.60;28.80;;;;;;4989478;28;20425;-68